sensor_id;sensor_type;location;lat;lon;timestamp;P1;durP1;ratioP1;P2;durP2;ratioP2
8159;SDS011;27404;52.398;9.646;2023-01-08T00:01:58;3.53;;;2.43;;
8159;SDS011;27404;52.398;9.646;2023-01-08T00:04:24;3.23;;;2.17;;
8159;SDS011;27404;52.398;9.646;2023-01-08T00:06:49;2.90;;;2.00;;
8159;SDS011;27404;52.398;9.646;2023-01-08T00:09:14;2.80;;;2.37;;
8159;SDS011;27404;52.398;9.646;2023-01-08T00:11:40;2.77;;;2.07;;
8159;SDS011;27404;52.398;9.646;2023-01-08T00:14:05;3.07;;;2.20;;
8159;SDS011;27404;52.398;9.646;2023-01-08T00:16:31;5.40;;;2.37;;
8159;SDS011;27404;52.398;9.646;2023-01-08T00:18:56;4.13;;;2.60;;
8159;SDS011;27404;52.398;9.646;2023-01-08T00:21:22;4.10;;;2.20;;
8159;SDS011;27404;52.398;9.646;2023-01-08T00:23:47;4.00;;;2.57;;
8159;SDS011;27404;52.398;9.646;2023-01-08T00:26:13;3.20;;;2.50;;
8159;SDS011;27404;52.398;9.646;2023-01-08T00:28:39;3.87;;;2.50;;
8159;SDS011;27404;52.398;9.646;2023-01-08T00:31:05;4.10;;;2.37;;
8159;SDS011;27404;52.398;9.646;2023-01-08T00:33:32;4.50;;;2.70;;
8159;SDS011;27404;52.398;9.646;2023-01-08T00:35:59;4.27;;;2.63;;
8159;SDS011;27404;52.398;9.646;2023-01-08T00:38:25;4.70;;;2.50;;
8159;SDS011;27404;52.398;9.646;2023-01-08T00:40:52;5.10;;;2.33;;
8159;SDS011;27404;52.398;9.646;2023-01-08T00:43:17;3.83;;;2.63;;
8159;SDS011;27404;52.398;9.646;2023-01-08T00:45:42;4.43;;;2.70;;
8159;SDS011;27404;52.398;9.646;2023-01-08T00:48:08;4.73;;;2.57;;
8159;SDS011;27404;52.398;9.646;2023-01-08T00:50:34;7.23;;;2.50;;
8159;SDS011;27404;52.398;9.646;2023-01-08T00:52:59;3.60;;;2.47;;
8159;SDS011;27404;52.398;9.646;2023-01-08T00:55:25;3.67;;;2.57;;
8159;SDS011;27404;52.398;9.646;2023-01-08T00:57:50;4.00;;;2.70;;
8159;SDS011;27404;52.398;9.646;2023-01-08T01:00:16;4.23;;;2.67;;
8159;SDS011;27404;52.398;9.646;2023-01-08T01:02:41;3.80;;;2.57;;
8159;SDS011;27404;52.398;9.646;2023-01-08T01:05:08;3.73;;;2.33;;
8159;SDS011;27404;52.398;9.646;2023-01-08T01:07:34;3.07;;;2.30;;
8159;SDS011;27404;52.398;9.646;2023-01-08T01:10:01;3.00;;;2.10;;
8159;SDS011;27404;52.398;9.646;2023-01-08T01:12:26;3.20;;;2.37;;
8159;SDS011;27404;52.398;9.646;2023-01-08T01:14:52;4.97;;;2.57;;
8159;SDS011;27404;52.398;9.646;2023-01-08T01:17:18;6.00;;;2.90;;
8159;SDS011;27404;52.398;9.646;2023-01-08T01:19:43;3.87;;;2.70;;
8159;SDS011;27404;52.398;9.646;2023-01-08T01:22:09;3.60;;;2.47;;
8159;SDS011;27404;52.398;9.646;2023-01-08T01:24:34;3.43;;;2.50;;
8159;SDS011;27404;52.398;9.646;2023-01-08T01:27:00;3.53;;;2.50;;
8159;SDS011;27404;52.398;9.646;2023-01-08T01:29:25;3.27;;;2.47;;
8159;SDS011;27404;52.398;9.646;2023-01-08T01:31:51;3.40;;;2.60;;
8159;SDS011;27404;52.398;9.646;2023-01-08T01:34:16;4.87;;;2.37;;
8159;SDS011;27404;52.398;9.646;2023-01-08T01:36:42;4.53;;;2.40;;
8159;SDS011;27404;52.398;9.646;2023-01-08T01:39:07;4.17;;;2.50;;
8159;SDS011;27404;52.398;9.646;2023-01-08T01:41:37;3.00;;;2.20;;
8159;SDS011;27404;52.398;9.646;2023-01-08T01:47:00;4.27;;;2.73;;
8159;SDS011;27404;52.398;9.646;2023-01-08T01:49:30;2.97;;;2.07;;
8159;SDS011;27404;52.398;9.646;2023-01-08T01:51:57;3.53;;;2.53;;
8159;SDS011;27404;52.398;9.646;2023-01-08T01:54:27;11.40;;;2.90;;
8159;SDS011;27404;52.398;9.646;2023-01-08T01:56:53;4.43;;;2.20;;
8159;SDS011;27404;52.398;9.646;2023-01-08T01:59:20;3.70;;;2.70;;
8159;SDS011;27404;52.398;9.646;2023-01-08T02:01:45;6.00;;;2.60;;
8159;SDS011;27404;52.398;9.646;2023-01-08T02:04:11;4.33;;;2.50;;
8159;SDS011;27404;52.398;9.646;2023-01-08T02:09:25;4.20;;;2.63;;
8159;SDS011;27404;52.398;9.646;2023-01-08T02:12:21;3.67;;;2.33;;
8159;SDS011;27404;52.398;9.646;2023-01-08T02:15:07;5.13;;;2.93;;
8159;SDS011;27404;52.398;9.646;2023-01-08T02:20:38;3.20;;;2.33;;
8159;SDS011;27404;52.398;9.646;2023-01-08T02:23:13;4.37;;;2.80;;
8159;SDS011;27404;52.398;9.646;2023-01-08T02:28:28;3.83;;;2.53;;
8159;SDS011;27404;52.398;9.646;2023-01-08T02:30:55;3.80;;;2.43;;
8159;SDS011;27404;52.398;9.646;2023-01-08T02:33:22;3.40;;;2.40;;
8159;SDS011;27404;52.398;9.646;2023-01-08T02:35:51;3.60;;;2.43;;
8159;SDS011;27404;52.398;9.646;2023-01-08T02:38:18;3.50;;;2.30;;
8159;SDS011;27404;52.398;9.646;2023-01-08T02:40:54;3.77;;;2.50;;
8159;SDS011;27404;52.398;9.646;2023-01-08T02:43:32;3.93;;;2.53;;
8159;SDS011;27404;52.398;9.646;2023-01-08T02:46:06;5.83;;;2.47;;
8159;SDS011;27404;52.398;9.646;2023-01-08T02:51:07;3.10;;;2.30;;
8159;SDS011;27404;52.398;9.646;2023-01-08T02:53:38;3.53;;;2.37;;
8159;SDS011;27404;52.398;9.646;2023-01-08T02:56:07;5.07;;;2.60;;
8159;SDS011;27404;52.398;9.646;2023-01-08T02:58:36;4.40;;;2.60;;
8159;SDS011;27404;52.398;9.646;2023-01-08T03:01:04;3.23;;;2.50;;
8159;SDS011;27404;52.398;9.646;2023-01-08T03:03:32;4.70;;;2.73;;
8159;SDS011;27404;52.398;9.646;2023-01-08T03:06:01;3.80;;;2.33;;
8159;SDS011;27404;52.398;9.646;2023-01-08T03:08:30;4.10;;;2.70;;
8159;SDS011;27404;52.398;9.646;2023-01-08T03:11:03;3.37;;;2.47;;
8159;SDS011;27404;52.398;9.646;2023-01-08T03:13:34;3.73;;;2.20;;
8159;SDS011;27404;52.398;9.646;2023-01-08T03:16:07;3.47;;;2.37;;
8159;SDS011;27404;52.398;9.646;2023-01-08T03:18:36;4.13;;;2.77;;
8159;SDS011;27404;52.398;9.646;2023-01-08T03:21:08;5.10;;;2.13;;
8159;SDS011;27404;52.398;9.646;2023-01-08T03:23:34;3.37;;;2.57;;
8159;SDS011;27404;52.398;9.646;2023-01-08T03:26:02;2.57;;;2.17;;
8159;SDS011;27404;52.398;9.646;2023-01-08T03:28:32;4.47;;;2.50;;
8159;SDS011;27404;52.398;9.646;2023-01-08T03:31:02;3.97;;;2.50;;
8159;SDS011;27404;52.398;9.646;2023-01-08T03:33:29;5.40;;;2.80;;
8159;SDS011;27404;52.398;9.646;2023-01-08T03:35:55;4.03;;;2.70;;
8159;SDS011;27404;52.398;9.646;2023-01-08T03:38:26;5.00;;;2.60;;
8159;SDS011;27404;52.398;9.646;2023-01-08T03:40:56;3.07;;;2.30;;
8159;SDS011;27404;52.398;9.646;2023-01-08T03:43:25;3.70;;;2.60;;
8159;SDS011;27404;52.398;9.646;2023-01-08T03:45:54;3.37;;;2.70;;
8159;SDS011;27404;52.398;9.646;2023-01-08T03:48:24;4.23;;;2.80;;
8159;SDS011;27404;52.398;9.646;2023-01-08T03:50:51;6.00;;;2.80;;
8159;SDS011;27404;52.398;9.646;2023-01-08T03:53:17;4.27;;;3.00;;
8159;SDS011;27404;52.398;9.646;2023-01-08T03:55:42;5.10;;;2.80;;
8159;SDS011;27404;52.398;9.646;2023-01-08T03:58:07;3.90;;;2.40;;
8159;SDS011;27404;52.398;9.646;2023-01-08T04:00:33;3.77;;;2.53;;
8159;SDS011;27404;52.398;9.646;2023-01-08T04:02:58;4.30;;;2.67;;
8159;SDS011;27404;52.398;9.646;2023-01-08T04:05:24;3.37;;;2.80;;
8159;SDS011;27404;52.398;9.646;2023-01-08T04:07:49;3.97;;;2.43;;
8159;SDS011;27404;52.398;9.646;2023-01-08T04:10:15;3.33;;;2.60;;
8159;SDS011;27404;52.398;9.646;2023-01-08T04:12:41;4.07;;;2.80;;
8159;SDS011;27404;52.398;9.646;2023-01-08T04:15:07;3.83;;;2.60;;
8159;SDS011;27404;52.398;9.646;2023-01-08T04:17:33;5.67;;;2.60;;
8159;SDS011;27404;52.398;9.646;2023-01-08T04:19:59;4.43;;;2.70;;
8159;SDS011;27404;52.398;9.646;2023-01-08T04:22:24;3.47;;;2.40;;
8159;SDS011;27404;52.398;9.646;2023-01-08T04:24:49;3.87;;;2.50;;
8159;SDS011;27404;52.398;9.646;2023-01-08T04:27:15;3.30;;;2.30;;
8159;SDS011;27404;52.398;9.646;2023-01-08T04:29:40;3.67;;;2.53;;
8159;SDS011;27404;52.398;9.646;2023-01-08T04:32:06;3.50;;;2.50;;
8159;SDS011;27404;52.398;9.646;2023-01-08T04:34:31;4.47;;;2.50;;
8159;SDS011;27404;52.398;9.646;2023-01-08T04:36:57;3.63;;;2.40;;
8159;SDS011;27404;52.398;9.646;2023-01-08T04:39:23;3.77;;;2.33;;
8159;SDS011;27404;52.398;9.646;2023-01-08T04:41:48;3.83;;;2.70;;
8159;SDS011;27404;52.398;9.646;2023-01-08T04:44:13;3.40;;;2.30;;
8159;SDS011;27404;52.398;9.646;2023-01-08T04:46:39;3.47;;;2.20;;
8159;SDS011;27404;52.398;9.646;2023-01-08T04:49:04;3.50;;;2.30;;
8159;SDS011;27404;52.398;9.646;2023-01-08T04:51:30;3.20;;;2.20;;
8159;SDS011;27404;52.398;9.646;2023-01-08T04:53:55;4.27;;;2.03;;
8159;SDS011;27404;52.398;9.646;2023-01-08T04:56:21;4.20;;;2.13;;
8159;SDS011;27404;52.398;9.646;2023-01-08T04:58:46;3.27;;;2.33;;
8159;SDS011;27404;52.398;9.646;2023-01-08T05:01:17;3.80;;;2.63;;
8159;SDS011;27404;52.398;9.646;2023-01-08T05:03:45;3.80;;;2.30;;
8159;SDS011;27404;52.398;9.646;2023-01-08T05:06:11;3.37;;;2.30;;
8159;SDS011;27404;52.398;9.646;2023-01-08T05:08:36;3.63;;;2.57;;
8159;SDS011;27404;52.398;9.646;2023-01-08T05:11:01;3.80;;;2.03;;
8159;SDS011;27404;52.398;9.646;2023-01-08T05:13:27;3.87;;;2.73;;
8159;SDS011;27404;52.398;9.646;2023-01-08T05:15:53;4.43;;;2.20;;
8159;SDS011;27404;52.398;9.646;2023-01-08T05:18:22;3.73;;;2.40;;
8159;SDS011;27404;52.398;9.646;2023-01-08T05:20:48;4.00;;;3.07;;
8159;SDS011;27404;52.398;9.646;2023-01-08T05:23:13;4.20;;;2.43;;
8159;SDS011;27404;52.398;9.646;2023-01-08T05:25:39;3.47;;;2.57;;
8159;SDS011;27404;52.398;9.646;2023-01-08T05:28:05;4.57;;;2.57;;
8159;SDS011;27404;52.398;9.646;2023-01-08T05:30:30;3.23;;;2.47;;
8159;SDS011;27404;52.398;9.646;2023-01-08T05:32:55;4.33;;;2.70;;
8159;SDS011;27404;52.398;9.646;2023-01-08T05:35:21;4.47;;;2.70;;
8159;SDS011;27404;52.398;9.646;2023-01-08T05:37:46;2.80;;;2.20;;
8159;SDS011;27404;52.398;9.646;2023-01-08T05:40:12;2.77;;;2.27;;
8159;SDS011;27404;52.398;9.646;2023-01-08T05:42:37;4.03;;;2.47;;
8159;SDS011;27404;52.398;9.646;2023-01-08T05:45:03;4.53;;;2.47;;
8159;SDS011;27404;52.398;9.646;2023-01-08T05:47:30;4.27;;;2.10;;
8159;SDS011;27404;52.398;9.646;2023-01-08T05:49:56;3.50;;;2.40;;
8159;SDS011;27404;52.398;9.646;2023-01-08T05:52:22;3.57;;;2.60;;
8159;SDS011;27404;52.398;9.646;2023-01-08T05:54:47;4.07;;;2.13;;
8159;SDS011;27404;52.398;9.646;2023-01-08T05:57:13;4.20;;;2.20;;
8159;SDS011;27404;52.398;9.646;2023-01-08T05:59:38;3.03;;;2.37;;
8159;SDS011;27404;52.398;9.646;2023-01-08T06:02:03;3.13;;;2.47;;
8159;SDS011;27404;52.398;9.646;2023-01-08T06:04:29;4.93;;;3.30;;
8159;SDS011;27404;52.398;9.646;2023-01-08T06:06:54;4.00;;;2.10;;
8159;SDS011;27404;52.398;9.646;2023-01-08T06:09:20;3.50;;;2.67;;
8159;SDS011;27404;52.398;9.646;2023-01-08T06:11:45;4.07;;;2.63;;
8159;SDS011;27404;52.398;9.646;2023-01-08T06:14:11;3.77;;;2.47;;
8159;SDS011;27404;52.398;9.646;2023-01-08T06:16:36;3.77;;;2.10;;
8159;SDS011;27404;52.398;9.646;2023-01-08T06:19:01;3.33;;;2.33;;
8159;SDS011;27404;52.398;9.646;2023-01-08T06:21:27;3.53;;;2.60;;
8159;SDS011;27404;52.398;9.646;2023-01-08T06:23:52;4.10;;;2.10;;
8159;SDS011;27404;52.398;9.646;2023-01-08T06:26:18;4.30;;;2.50;;
8159;SDS011;27404;52.398;9.646;2023-01-08T06:28:43;4.10;;;2.17;;
8159;SDS011;27404;52.398;9.646;2023-01-08T06:31:08;6.00;;;2.20;;
8159;SDS011;27404;52.398;9.646;2023-01-08T06:33:34;3.07;;;2.07;;
8159;SDS011;27404;52.398;9.646;2023-01-08T06:36:00;3.13;;;2.00;;
8159;SDS011;27404;52.398;9.646;2023-01-08T06:38:29;3.30;;;2.27;;
8159;SDS011;27404;52.398;9.646;2023-01-08T06:40:55;4.13;;;1.97;;
8159;SDS011;27404;52.398;9.646;2023-01-08T06:43:21;5.63;;;2.90;;
8159;SDS011;27404;52.398;9.646;2023-01-08T06:45:51;4.53;;;2.53;;
8159;SDS011;27404;52.398;9.646;2023-01-08T06:48:18;4.37;;;3.00;;
8159;SDS011;27404;52.398;9.646;2023-01-08T06:50:43;3.50;;;2.37;;
8159;SDS011;27404;52.398;9.646;2023-01-08T06:53:08;4.23;;;2.93;;
8159;SDS011;27404;52.398;9.646;2023-01-08T06:55:34;4.13;;;3.20;;
8159;SDS011;27404;52.398;9.646;2023-01-08T06:58:02;4.47;;;3.00;;
8159;SDS011;27404;52.398;9.646;2023-01-08T07:00:27;5.20;;;3.10;;
8159;SDS011;27404;52.398;9.646;2023-01-08T07:02:53;4.77;;;3.23;;
8159;SDS011;27404;52.398;9.646;2023-01-08T07:05:19;5.33;;;3.17;;
8159;SDS011;27404;52.398;9.646;2023-01-08T07:07:45;4.50;;;2.90;;
8159;SDS011;27404;52.398;9.646;2023-01-08T07:10:10;4.27;;;2.90;;
8159;SDS011;27404;52.398;9.646;2023-01-08T07:12:36;4.77;;;2.83;;
8159;SDS011;27404;52.398;9.646;2023-01-08T07:15:01;4.23;;;3.10;;
8159;SDS011;27404;52.398;9.646;2023-01-08T07:17:27;5.63;;;3.20;;
8159;SDS011;27404;52.398;9.646;2023-01-08T07:19:53;3.43;;;2.70;;
8159;SDS011;27404;52.398;9.646;2023-01-08T07:22:18;3.77;;;2.93;;
8159;SDS011;27404;52.398;9.646;2023-01-08T07:24:45;4.00;;;2.90;;
8159;SDS011;27404;52.398;9.646;2023-01-08T07:27:10;3.73;;;2.70;;
8159;SDS011;27404;52.398;9.646;2023-01-08T07:29:36;5.80;;;3.20;;
8159;SDS011;27404;52.398;9.646;2023-01-08T07:32:01;5.07;;;2.90;;
8159;SDS011;27404;52.398;9.646;2023-01-08T07:34:27;3.87;;;2.90;;
8159;SDS011;27404;52.398;9.646;2023-01-08T07:36:52;5.57;;;3.13;;
8159;SDS011;27404;52.398;9.646;2023-01-08T07:39:17;4.63;;;3.13;;
8159;SDS011;27404;52.398;9.646;2023-01-08T07:41:43;4.97;;;2.83;;
8159;SDS011;27404;52.398;9.646;2023-01-08T07:44:08;3.77;;;2.83;;
8159;SDS011;27404;52.398;9.646;2023-01-08T07:46:34;3.87;;;2.73;;
8159;SDS011;27404;52.398;9.646;2023-01-08T07:48:59;4.77;;;2.77;;
8159;SDS011;27404;52.398;9.646;2023-01-08T07:51:25;3.53;;;2.67;;
8159;SDS011;27404;52.398;9.646;2023-01-08T07:53:51;4.57;;;2.80;;
8159;SDS011;27404;52.398;9.646;2023-01-08T07:56:16;3.83;;;2.47;;
8159;SDS011;27404;52.398;9.646;2023-01-08T07:58:41;4.63;;;2.67;;
8159;SDS011;27404;52.398;9.646;2023-01-08T08:01:08;3.73;;;2.30;;
8159;SDS011;27404;52.398;9.646;2023-01-08T08:03:35;3.87;;;2.80;;
8159;SDS011;27404;52.398;9.646;2023-01-08T08:06:02;3.33;;;2.60;;
8159;SDS011;27404;52.398;9.646;2023-01-08T08:08:28;3.93;;;2.10;;
8159;SDS011;27404;52.398;9.646;2023-01-08T08:10:53;3.03;;;2.20;;
8159;SDS011;27404;52.398;9.646;2023-01-08T08:13:19;3.17;;;1.93;;
8159;SDS011;27404;52.398;9.646;2023-01-08T08:15:44;3.40;;;2.27;;
8159;SDS011;27404;52.398;9.646;2023-01-08T08:18:09;3.00;;;2.33;;
8159;SDS011;27404;52.398;9.646;2023-01-08T08:20:35;3.80;;;1.97;;
8159;SDS011;27404;52.398;9.646;2023-01-08T08:25:29;2.93;;;2.23;;
8159;SDS011;27404;52.398;9.646;2023-01-08T08:27:55;2.83;;;2.10;;
8159;SDS011;27404;52.398;9.646;2023-01-08T08:30:25;3.87;;;2.30;;
8159;SDS011;27404;52.398;9.646;2023-01-08T08:32:52;2.87;;;2.10;;
8159;SDS011;27404;52.398;9.646;2023-01-08T08:35:18;3.90;;;2.30;;
8159;SDS011;27404;52.398;9.646;2023-01-08T08:37:43;2.73;;;2.07;;
8159;SDS011;27404;52.398;9.646;2023-01-08T08:40:09;2.10;;;1.80;;
8159;SDS011;27404;52.398;9.646;2023-01-08T08:42:34;2.70;;;2.13;;
8159;SDS011;27404;52.398;9.646;2023-01-08T08:45:00;3.17;;;1.77;;
8159;SDS011;27404;52.398;9.646;2023-01-08T08:47:25;2.40;;;2.13;;
8159;SDS011;27404;52.398;9.646;2023-01-08T08:49:51;2.57;;;2.00;;
8159;SDS011;27404;52.398;9.646;2023-01-08T08:52:16;2.43;;;1.63;;
8159;SDS011;27404;52.398;9.646;2023-01-08T08:54:42;4.50;;;1.90;;
8159;SDS011;27404;52.398;9.646;2023-01-08T08:57:07;2.03;;;1.53;;
8159;SDS011;27404;52.398;9.646;2023-01-08T08:59:33;2.30;;;1.90;;
8159;SDS011;27404;52.398;9.646;2023-01-08T09:01:59;2.00;;;1.60;;
8159;SDS011;27404;52.398;9.646;2023-01-08T09:04:24;2.30;;;1.60;;
8159;SDS011;27404;52.398;9.646;2023-01-08T09:06:50;2.40;;;1.73;;
8159;SDS011;27404;52.398;9.646;2023-01-08T09:09:16;2.37;;;1.50;;
8159;SDS011;27404;52.398;9.646;2023-01-08T09:11:42;2.17;;;1.50;;
8159;SDS011;27404;52.398;9.646;2023-01-08T09:14:08;2.10;;;1.50;;
8159;SDS011;27404;52.398;9.646;2023-01-08T09:16:34;2.00;;;1.40;;
8159;SDS011;27404;52.398;9.646;2023-01-08T09:19:01;2.47;;;1.50;;
8159;SDS011;27404;52.398;9.646;2023-01-08T09:21:26;3.80;;;1.70;;
8159;SDS011;27404;52.398;9.646;2023-01-08T09:23:52;1.70;;;1.20;;
8159;SDS011;27404;52.398;9.646;2023-01-08T09:26:17;2.67;;;1.20;;
8159;SDS011;27404;52.398;9.646;2023-01-08T09:28:42;1.87;;;1.10;;
8159;SDS011;27404;52.398;9.646;2023-01-08T09:31:08;2.47;;;1.40;;
8159;SDS011;27404;52.398;9.646;2023-01-08T09:33:33;1.63;;;1.10;;
8159;SDS011;27404;52.398;9.646;2023-01-08T09:35:59;1.97;;;1.30;;
8159;SDS011;27404;52.398;9.646;2023-01-08T09:38:24;1.43;;;1.30;;
8159;SDS011;27404;52.398;9.646;2023-01-08T09:40:57;2.30;;;1.70;;
8159;SDS011;27404;52.398;9.646;2023-01-08T09:43:26;2.97;;;1.30;;
8159;SDS011;27404;52.398;9.646;2023-01-08T09:45:57;2.10;;;1.33;;
8159;SDS011;27404;52.398;9.646;2023-01-08T09:48:25;2.47;;;1.10;;
8159;SDS011;27404;52.398;9.646;2023-01-08T09:50:54;1.70;;;1.27;;
8159;SDS011;27404;52.398;9.646;2023-01-08T09:53:20;1.70;;;1.20;;
8159;SDS011;27404;52.398;9.646;2023-01-08T09:55:51;2.80;;;1.30;;
8159;SDS011;27404;52.398;9.646;2023-01-08T09:58:29;1.90;;;1.13;;
8159;SDS011;27404;52.398;9.646;2023-01-08T10:00:57;2.50;;;1.50;;
8159;SDS011;27404;52.398;9.646;2023-01-08T10:03:24;2.07;;;1.30;;
8159;SDS011;27404;52.398;9.646;2023-01-08T10:05:55;1.67;;;1.40;;
8159;SDS011;27404;52.398;9.646;2023-01-08T10:08:21;2.00;;;1.40;;
8159;SDS011;27404;52.398;9.646;2023-01-08T10:10:46;2.00;;;1.40;;
8159;SDS011;27404;52.398;9.646;2023-01-08T10:13:12;1.87;;;1.40;;
8159;SDS011;27404;52.398;9.646;2023-01-08T10:15:39;2.53;;;1.50;;
8159;SDS011;27404;52.398;9.646;2023-01-08T10:18:06;2.17;;;1.33;;
8159;SDS011;27404;52.398;9.646;2023-01-08T10:20:36;1.60;;;1.20;;
8159;SDS011;27404;52.398;9.646;2023-01-08T10:23:10;1.50;;;1.20;;
8159;SDS011;27404;52.398;9.646;2023-01-08T10:25:48;1.63;;;1.10;;
8159;SDS011;27404;52.398;9.646;2023-01-08T10:28:39;3.23;;;1.27;;
8159;SDS011;27404;52.398;9.646;2023-01-08T10:31:05;1.77;;;1.00;;
8159;SDS011;27404;52.398;9.646;2023-01-08T10:33:43;1.60;;;1.07;;
8159;SDS011;27404;52.398;9.646;2023-01-08T10:36:13;1.73;;;1.10;;
8159;SDS011;27404;52.398;9.646;2023-01-08T10:38:48;3.63;;;1.10;;
8159;SDS011;27404;52.398;9.646;2023-01-08T10:41:18;1.33;;;1.00;;
8159;SDS011;27404;52.398;9.646;2023-01-08T10:46:21;2.10;;;1.10;;
8159;SDS011;27404;52.398;9.646;2023-01-08T10:48:53;1.40;;;1.10;;
8159;SDS011;27404;52.398;9.646;2023-01-08T10:51:25;2.00;;;1.13;;
8159;SDS011;27404;52.398;9.646;2023-01-08T10:53:53;2.20;;;1.30;;
8159;SDS011;27404;52.398;9.646;2023-01-08T10:56:24;2.50;;;0.93;;
8159;SDS011;27404;52.398;9.646;2023-01-08T10:58:51;1.63;;;0.90;;
8159;SDS011;27404;52.398;9.646;2023-01-08T11:01:27;1.77;;;1.03;;
8159;SDS011;27404;52.398;9.646;2023-01-08T11:03:55;2.03;;;1.10;;
8159;SDS011;27404;52.398;9.646;2023-01-08T11:06:26;1.30;;;0.80;;
8159;SDS011;27404;52.398;9.646;2023-01-08T11:09:18;2.17;;;1.10;;
8159;SDS011;27404;52.398;9.646;2023-01-08T11:11:47;4.77;;;0.90;;
8159;SDS011;27404;52.398;9.646;2023-01-08T11:14:20;1.17;;;0.97;;
8159;SDS011;27404;52.398;9.646;2023-01-08T11:16:49;1.87;;;1.03;;
8159;SDS011;27404;52.398;9.646;2023-01-08T11:19:16;1.37;;;0.90;;
8159;SDS011;27404;52.398;9.646;2023-01-08T11:21:59;1.43;;;0.90;;
8159;SDS011;27404;52.398;9.646;2023-01-08T11:24:48;2.33;;;0.80;;
8159;SDS011;27404;52.398;9.646;2023-01-08T11:27:17;1.23;;;0.90;;
8159;SDS011;27404;52.398;9.646;2023-01-08T11:34:50;3.80;;;0.90;;
8159;SDS011;27404;52.398;9.646;2023-01-08T11:37:27;2.57;;;1.07;;
8159;SDS011;27404;52.398;9.646;2023-01-08T11:39:58;2.33;;;1.03;;
8159;SDS011;27404;52.398;9.646;2023-01-08T11:45:05;1.30;;;0.93;;
8159;SDS011;27404;52.398;9.646;2023-01-08T11:50:21;1.27;;;0.90;;
8159;SDS011;27404;52.398;9.646;2023-01-08T11:56:00;2.07;;;0.90;;
8159;SDS011;27404;52.398;9.646;2023-01-08T12:04:25;3.20;;;0.90;;
8159;SDS011;27404;52.398;9.646;2023-01-08T12:15:26;1.47;;;0.80;;
8159;SDS011;27404;52.398;9.646;2023-01-08T12:18:03;3.03;;;0.70;;
8159;SDS011;27404;52.398;9.646;2023-01-08T12:20:53;2.70;;;0.80;;
8159;SDS011;27404;52.398;9.646;2023-01-08T12:23:24;2.57;;;0.70;;
8159;SDS011;27404;52.398;9.646;2023-01-08T12:28:39;2.00;;;0.70;;
8159;SDS011;27404;52.398;9.646;2023-01-08T12:34:10;2.60;;;0.83;;
8159;SDS011;27404;52.398;9.646;2023-01-08T12:36:39;2.53;;;0.73;;
8159;SDS011;27404;52.398;9.646;2023-01-08T12:41:48;2.47;;;1.00;;
8159;SDS011;27404;52.398;9.646;2023-01-08T12:44:21;2.50;;;0.60;;
8159;SDS011;27404;52.398;9.646;2023-01-08T12:46:50;4.03;;;1.33;;
8159;SDS011;27404;52.398;9.646;2023-01-08T12:49:20;5.17;;;1.00;;
8159;SDS011;27404;52.398;9.646;2023-01-08T12:52:15;6.07;;;0.80;;
8159;SDS011;27404;52.398;9.646;2023-01-08T12:57:27;3.87;;;0.90;;
8159;SDS011;27404;52.398;9.646;2023-01-08T13:00:03;3.70;;;1.13;;
8159;SDS011;27404;52.398;9.646;2023-01-08T13:02:48;4.23;;;0.90;;
8159;SDS011;27404;52.398;9.646;2023-01-08T13:07:53;2.30;;;1.40;;
8159;SDS011;27404;52.398;9.646;2023-01-08T13:12:50;2.43;;;1.00;;
8159;SDS011;27404;52.398;9.646;2023-01-08T13:15:21;3.57;;;1.10;;
8159;SDS011;27404;52.398;9.646;2023-01-08T13:17:50;2.90;;;1.17;;
8159;SDS011;27404;52.398;9.646;2023-01-08T13:20:22;4.37;;;1.10;;
8159;SDS011;27404;52.398;9.646;2023-01-08T13:22:51;2.80;;;1.00;;
8159;SDS011;27404;52.398;9.646;2023-01-08T13:27:46;4.03;;;1.03;;
8159;SDS011;27404;52.398;9.646;2023-01-08T13:30:46;4.03;;;0.93;;
8159;SDS011;27404;52.398;9.646;2023-01-08T13:33:25;3.33;;;0.90;;
8159;SDS011;27404;52.398;9.646;2023-01-08T13:36:17;3.03;;;0.93;;
8159;SDS011;27404;52.398;9.646;2023-01-08T13:38:45;6.97;;;1.47;;
8159;SDS011;27404;52.398;9.646;2023-01-08T13:41:24;3.43;;;1.03;;
8159;SDS011;27404;52.398;9.646;2023-01-08T13:44:01;2.20;;;0.83;;
8159;SDS011;27404;52.398;9.646;2023-01-08T13:46:30;6.93;;;1.07;;
8159;SDS011;27404;52.398;9.646;2023-01-08T13:48:59;6.07;;;1.30;;
8159;SDS011;27404;52.398;9.646;2023-01-08T13:51:29;7.90;;;1.20;;
8159;SDS011;27404;52.398;9.646;2023-01-08T13:56:42;4.00;;;1.00;;
8159;SDS011;27404;52.398;9.646;2023-01-08T14:02:16;2.20;;;1.00;;
8159;SDS011;27404;52.398;9.646;2023-01-08T14:04:49;3.77;;;1.17;;
8159;SDS011;27404;52.398;9.646;2023-01-08T14:07:15;3.03;;;1.10;;
8159;SDS011;27404;52.398;9.646;2023-01-08T14:09:41;2.73;;;1.00;;
8159;SDS011;27404;52.398;9.646;2023-01-08T14:12:07;3.87;;;0.70;;
8159;SDS011;27404;52.398;9.646;2023-01-08T14:14:38;2.57;;;1.20;;
8159;SDS011;27404;52.398;9.646;2023-01-08T14:17:11;2.70;;;1.10;;
8159;SDS011;27404;52.398;9.646;2023-01-08T14:19:40;3.30;;;0.90;;
8159;SDS011;27404;52.398;9.646;2023-01-08T14:22:06;3.50;;;1.07;;
8159;SDS011;27404;52.398;9.646;2023-01-08T14:24:48;2.60;;;0.93;;
8159;SDS011;27404;52.398;9.646;2023-01-08T14:27:27;2.93;;;0.90;;
8159;SDS011;27404;52.398;9.646;2023-01-08T14:29:54;2.07;;;0.80;;
8159;SDS011;27404;52.398;9.646;2023-01-08T14:32:21;1.63;;;0.80;;
8159;SDS011;27404;52.398;9.646;2023-01-08T14:34:49;2.90;;;1.00;;
8159;SDS011;27404;52.398;9.646;2023-01-08T14:37:16;1.97;;;0.80;;
8159;SDS011;27404;52.398;9.646;2023-01-08T14:39:42;2.90;;;0.97;;
8159;SDS011;27404;52.398;9.646;2023-01-08T14:42:28;3.93;;;1.00;;
8159;SDS011;27404;52.398;9.646;2023-01-08T14:45:07;2.87;;;1.00;;
8159;SDS011;27404;52.398;9.646;2023-01-08T14:47:44;3.07;;;0.80;;
8159;SDS011;27404;52.398;9.646;2023-01-08T14:52:54;1.70;;;0.80;;
8159;SDS011;27404;52.398;9.646;2023-01-08T14:55:23;1.97;;;0.97;;
8159;SDS011;27404;52.398;9.646;2023-01-08T14:57:52;3.10;;;0.83;;
8159;SDS011;27404;52.398;9.646;2023-01-08T15:00:21;2.73;;;1.10;;
8159;SDS011;27404;52.398;9.646;2023-01-08T15:02:51;1.87;;;1.20;;
8159;SDS011;27404;52.398;9.646;2023-01-08T15:08:33;3.53;;;1.20;;
8159;SDS011;27404;52.398;9.646;2023-01-08T15:13:24;2.20;;;1.00;;
8159;SDS011;27404;52.398;9.646;2023-01-08T15:15:55;1.70;;;1.07;;
8159;SDS011;27404;52.398;9.646;2023-01-08T15:18:32;3.83;;;1.63;;
8159;SDS011;27404;52.398;9.646;2023-01-08T15:20:59;1.63;;;0.83;;
8159;SDS011;27404;52.398;9.646;2023-01-08T15:23:26;2.47;;;1.00;;
8159;SDS011;27404;52.398;9.646;2023-01-08T15:25:59;1.37;;;0.90;;
8159;SDS011;27404;52.398;9.646;2023-01-08T15:28:24;2.17;;;0.80;;
8159;SDS011;27404;52.398;9.646;2023-01-08T15:30:54;1.90;;;1.00;;
8159;SDS011;27404;52.398;9.646;2023-01-08T15:33:22;1.53;;;1.00;;
8159;SDS011;27404;52.398;9.646;2023-01-08T15:35:49;1.53;;;1.00;;
8159;SDS011;27404;52.398;9.646;2023-01-08T15:38:15;1.60;;;0.90;;
8159;SDS011;27404;52.398;9.646;2023-01-08T15:40:42;1.70;;;0.93;;
8159;SDS011;27404;52.398;9.646;2023-01-08T15:43:15;2.40;;;1.20;;
8159;SDS011;27404;52.398;9.646;2023-01-08T15:45:43;2.23;;;1.03;;
8159;SDS011;27404;52.398;9.646;2023-01-08T15:48:10;2.40;;;1.30;;
8159;SDS011;27404;52.398;9.646;2023-01-08T15:50:39;4.40;;;1.13;;
8159;SDS011;27404;52.398;9.646;2023-01-08T15:53:11;3.10;;;1.10;;
8159;SDS011;27404;52.398;9.646;2023-01-08T15:55:44;1.90;;;1.20;;
8159;SDS011;27404;52.398;9.646;2023-01-08T15:58:11;2.03;;;1.20;;
8159;SDS011;27404;52.398;9.646;2023-01-08T16:00:38;2.17;;;1.37;;
8159;SDS011;27404;52.398;9.646;2023-01-08T16:03:04;2.60;;;1.50;;
8159;SDS011;27404;52.398;9.646;2023-01-08T16:05:31;2.80;;;1.80;;
8159;SDS011;27404;52.398;9.646;2023-01-08T16:07:57;1.93;;;1.23;;
8159;SDS011;27404;52.398;9.646;2023-01-08T16:10:23;1.60;;;0.90;;
8159;SDS011;27404;52.398;9.646;2023-01-08T16:12:49;2.00;;;1.13;;
8159;SDS011;27404;52.398;9.646;2023-01-08T16:15:14;2.50;;;0.80;;
8159;SDS011;27404;52.398;9.646;2023-01-08T16:17:40;1.93;;;1.20;;
8159;SDS011;27404;52.398;9.646;2023-01-08T16:20:06;2.27;;;1.40;;
8159;SDS011;27404;52.398;9.646;2023-01-08T16:22:32;2.93;;;1.30;;
8159;SDS011;27404;52.398;9.646;2023-01-08T16:24:58;2.33;;;1.20;;
8159;SDS011;27404;52.398;9.646;2023-01-08T16:27:23;2.83;;;1.20;;